Time;durP1;ratioP1;P1;durP2;ratioP2;P2;SDS_P1;SDS_P2;PMS_P1;PMS_P2;Temp;Humidity;BMP_temperature;BMP_pressure;BME280_temperature;BME280_humidity;BME280_pressure;Samples;Min_cycle;Max_cycle;Signal;HPM_P1;HPM_P2
2022/12/29 00:02:05;;;;;;;;;;;10.30;99.90;;;;;;5032785;28;19925;-64
2022/12/29 00:04:32;;;;;;;;;;;10.30;99.90;;;;;;5032426;28;19976;-63
2022/12/29 00:07:00;;;;;;;;;;;10.30;99.90;;;;;;5032658;28;19933;-63
2022/12/29 00:09:28;;;;;;;;;;;10.40;99.90;;;;;;5031996;28;19944;-63
2022/12/29 00:11:55;;;;;;;;;;;10.40;99.90;;;;;;5029394;28;19963;-63
2022/12/29 00:17:10;;;;;;;;;;;10.40;99.90;;;;;;5052295;28;20309;-63
2022/12/29 00:36:25;;;;;;;;;;;10.50;99.90;;;;;;5056068;28;20461;-71
2022/12/29 00:44:26;;;;;;;;;;;10.60;99.90;;;;;;5069095;28;19924;-72
2022/12/29 00:46:54;;;;;;;;;;;10.60;99.90;;;;;;5071739;28;19924;-70
2022/12/29 00:49:31;;;;;;;;;;;10.70;99.90;;;;;;5038700;28;19925;-70
2022/12/29 00:51:59;;;;;;;;;;;10.70;99.90;;;;;;5031812;28;19960;-70
2022/12/29 00:54:27;;;;;;;;;;;10.70;99.90;;;;;;5032031;28;20471;-71
2022/12/29 00:56:55;;;;;;;;;;;10.60;99.90;;;;;;5031852;28;19925;-71
2022/12/29 00:59:23;;;;;;;;;;;10.70;99.90;;;;;;5031891;28;19969;-71
2022/12/29 01:01:52;;;;;;;;;;;10.70;99.90;;;;;;5031876;28;19936;-70
2022/12/29 01:04:21;;;;;;;;;;;10.70;99.90;;;;;;5044410;28;20389;-70
2022/12/29 01:06:50;;;;;;;;;;;10.70;99.90;;;;;;5041444;28;19925;-71
2022/12/29 01:12:04;;;;;;;;;;;10.70;99.90;;;;;;5043911;28;20020;-71
2022/12/29 01:14:31;;;;;;;;;;;10.70;99.90;;;;;;5058790;28;20391;-72
2022/12/29 01:16:59;;;;;;;;;;;10.70;99.90;;;;;;5046384;28;20015;-71
2022/12/29 01:19:27;;;;;;;;;;;10.70;99.90;;;;;;5067423;28;20111;-71
2022/12/29 01:21:56;;;;;;;;;;;10.60;99.90;;;;;;5055634;28;20404;-71
2022/12/29 01:24:25;;;;;;;;;;;10.60;99.90;;;;;;5051439;28;19952;-72
2022/12/29 01:26:54;;;;;;;;;;;10.60;99.90;;;;;;5046786;28;19935;-71
2022/12/29 01:29:22;;;;;;;;;;;10.60;99.90;;;;;;5031153;28;20027;-72
2022/12/29 01:31:50;;;;;;;;;;;10.60;99.90;;;;;;5031129;28;19928;-72
2022/12/29 01:34:18;;;;;;;;;;;10.60;99.90;;;;;;5031714;28;19925;-71
2022/12/29 01:36:45;;;;;;;;;;;10.50;99.90;;;;;;5035602;28;20011;-70
2022/12/29 01:39:14;;;;;;;;;;;10.60;99.90;;;;;;5043900;28;19925;-71
2022/12/29 01:41:42;;;;;;;;;;;10.60;99.90;;;;;;5031800;28;19932;-71
2022/12/29 01:44:29;;;;;;;;;;;10.60;99.90;;;;;;5031520;28;19925;-71
2022/12/29 01:46:56;;;;;;;;;;;10.60;99.90;;;;;;5031299;28;20020;-71
2022/12/29 01:49:27;;;;;;;;;;;10.60;99.90;;;;;;5049550;28;20024;-71
2022/12/29 01:51:58;;;;;;;;;;;10.60;99.90;;;;;;5059578;28;20016;-71
2022/12/29 01:54:28;;;;;;;;;;;10.60;99.90;;;;;;5052732;28;20352;-71
2022/12/29 01:56:58;;;;;;;;;;;10.60;99.90;;;;;;5047298;28;19925;-71
2022/12/29 01:59:28;;;;;;;;;;;10.60;99.90;;;;;;5058607;28;19925;-71
2022/12/29 02:01:56;;;;;;;;;;;10.60;99.90;;;;;;5045616;28;20007;-71
2022/12/29 02:04:24;;;;;;;;;;;10.60;99.90;;;;;;5056640;28;19925;-71
2022/12/29 02:06:54;;;;;;;;;;;10.70;99.90;;;;;;5045787;28;20020;-72
2022/12/29 02:09:23;;;;;;;;;;;10.70;99.90;;;;;;5054796;28;19925;-71
2022/12/29 02:11:52;;;;;;;;;;;10.70;99.90;;;;;;5058906;28;19963;-72
2022/12/29 02:14:20;;;;;;;;;;;10.70;99.90;;;;;;5047119;28;19932;-71
2022/12/29 02:16:56;;;;;;;;;;;10.80;99.90;;;;;;5048692;28;19935;-72
2022/12/29 02:19:47;;;;;;;;;;;10.80;99.90;;;;;;5050565;28;20012;-71
2022/12/29 02:22:19;;;;;;;;;;;10.80;99.90;;;;;;5048683;28;20015;-72
2022/12/29 02:25:01;;;;;;;;;;;10.80;99.90;;;;;;5047844;28;19925;-71
2022/12/29 02:27:41;;;;;;;;;;;10.80;99.90;;;;;;5055042;28;20402;-71
2022/12/29 02:30:16;;;;;;;;;;;10.80;99.90;;;;;;5040754;28;19925;-71
2022/12/29 02:32:52;;;;;;;;;;;10.80;99.90;;;;;;5053595;28;19928;-72
2022/12/29 02:35:24;;;;;;;;;;;10.80;99.90;;;;;;5043691;28;19940;-72
2022/12/29 02:37:56;;;;;;;;;;;10.70;99.90;;;;;;5051640;28;19929;-71
2022/12/29 02:40:25;;;;;;;;;;;10.70;99.90;;;;;;5053591;28;20465;-70
2022/12/29 02:43:03;;;;;;;;;;;10.70;99.90;;;;;;5053568;28;20011;-70
2022/12/29 02:45:33;;;;;;;;;;;10.70;99.90;;;;;;5051587;28;19925;-71
2022/12/29 02:48:05;;;;;;;;;;;10.60;99.90;;;;;;5054906;28;20484;-71
2022/12/29 02:50:34;;;;;;;;;;;10.50;99.90;;;;;;5071632;28;19959;-70
2022/12/29 02:53:05;;;;;;;;;;;10.50;99.90;;;;;;5072880;28;19931;-70
2022/12/29 02:55:32;;;;;;;;;;;10.50;99.90;;;;;;5073149;28;19924;-71
2022/12/29 02:58:14;;;;;;;;;;;10.50;99.90;;;;;;5071928;28;20026;-71
2022/12/29 03:00:44;;;;;;;;;;;10.50;99.90;;;;;;5051369;28;19972;-72
2022/12/29 03:03:18;;;;;;;;;;;10.50;99.90;;;;;;5047909;28;19978;-72
2022/12/29 03:05:57;;;;;;;;;;;10.40;99.90;;;;;;5045493;28;19987;-70
2022/12/29 03:08:29;;;;;;;;;;;10.40;99.90;;;;;;5046104;28;20015;-71
2022/12/29 03:11:00;;;;;;;;;;;10.40;99.90;;;;;;5049828;28;20314;-69
2022/12/29 03:16:21;;;;;;;;;;;10.40;99.90;;;;;;5049637;28;19925;-71
2022/12/29 03:18:56;;;;;;;;;;;10.40;99.90;;;;;;5052321;28;19958;-70
2022/12/29 03:22:26;;;;;;;;;;;10.40;99.90;;;;;;5050814;28;20420;-69
2022/12/29 03:24:16;;;;;;;;;;;10.40;99.90;;;;;;5046271;28;20037;-70
2022/12/29 03:26:45;;;;;;;;;;;10.50;99.90;;;;;;5052038;28;19935;-69
2022/12/29 03:29:14;;;;;;;;;;;10.50;99.90;;;;;;4984673;28;1983653;-71
2022/12/29 03:31:43;;;;;;;;;;;10.40;99.90;;;;;;5060717;28;19931;-70
2022/12/29 03:34:12;;;;;;;;;;;10.40;99.90;;;;;;5067849;28;19936;-70
2022/12/29 03:36:45;;;;;;;;;;;10.50;99.90;;;;;;5053140;28;19960;-68
2022/12/29 03:39:14;;;;;;;;;;;10.50;99.90;;;;;;5054473;28;20060;-70
2022/12/29 03:41:44;;;;;;;;;;;10.50;99.90;;;;;;5057829;28;19931;-70
2022/12/29 03:44:13;;;;;;;;;;;10.50;99.90;;;;;;5057304;28;19979;-70
2022/12/29 03:46:41;;;;;;;;;;;10.50;99.90;;;;;;5054802;28;19925;-72
2022/12/29 03:49:08;;;;;;;;;;;10.60;99.90;;;;;;5046791;28;19925;-71
2022/12/29 03:51:38;;;;;;;;;;;10.60;99.90;;;;;;5051334;28;20007;-72
2022/12/29 03:54:05;;;;;;;;;;;10.60;99.90;;;;;;5053462;28;19929;-72
2022/12/29 03:56:34;;;;;;;;;;;10.70;99.90;;;;;;5047076;28;19974;-72
2022/12/29 03:59:01;;;;;;;;;;;10.70;99.90;;;;;;5050432;28;19925;-71
2022/12/29 04:01:29;;;;;;;;;;;10.70;99.90;;;;;;5069886;28;19931;-71
2022/12/29 04:03:57;;;;;;;;;;;10.80;99.90;;;;;;5072709;28;19954;-70
2022/12/29 04:06:25;;;;;;;;;;;10.80;99.90;;;;;;5054808;28;19931;-70
2022/12/29 04:08:54;;;;;;;;;;;10.80;99.90;;;;;;5047668;28;20477;-70
2022/12/29 04:11:22;;;;;;;;;;;10.80;99.90;;;;;;5050825;28;19928;-70
2022/12/29 04:13:54;;;;;;;;;;;10.80;99.90;;;;;;5051202;28;19939;-70
2022/12/29 04:16:22;;;;;;;;;;;10.80;99.90;;;;;;5050686;28;20441;-69
2022/12/29 04:18:50;;;;;;;;;;;10.80;99.90;;;;;;5062432;28;20023;-69
2022/12/29 04:21:18;;;;;;;;;;;10.80;99.90;;;;;;5059238;28;20019;-69
2022/12/29 04:23:45;;;;;;;;;;;10.90;99.90;;;;;;5045424;28;20290;-69
2022/12/29 04:26:15;;;;;;;;;;;10.80;99.90;;;;;;5055490;28;19959;-69
2022/12/29 04:28:42;;;;;;;;;;;10.90;99.90;;;;;;5053715;28;19925;-69
2022/12/29 04:31:10;;;;;;;;;;;10.90;99.90;;;;;;5053017;28;19925;-69
2022/12/29 04:33:38;;;;;;;;;;;10.90;99.90;;;;;;5043866;28;19924;-70
2022/12/29 04:36:06;;;;;;;;;;;10.90;99.90;;;;;;5047370;28;20031;-69
2022/12/29 04:38:34;;;;;;;;;;;10.90;99.90;;;;;;5051531;28;19935;-70
2022/12/29 04:41:02;;;;;;;;;;;11.00;99.90;;;;;;5047115;28;20305;-72
2022/12/29 04:43:31;;;;;;;;;;;11.00;99.90;;;;;;5054244;28;19925;-71
2022/12/29 04:45:58;;;;;;;;;;;11.00;99.90;;;;;;5050851;28;19979;-72
2022/12/29 04:48:26;;;;;;;;;;;11.00;99.90;;;;;;5061734;28;19987;-70
2022/12/29 04:50:54;;;;;;;;;;;11.00;99.90;;;;;;5056112;28;19924;-70
2022/12/29 04:53:22;;;;;;;;;;;11.00;99.90;;;;;;5051856;28;20019;-71
2022/12/29 04:55:50;;;;;;;;;;;11.00;99.90;;;;;;5051875;28;19972;-72
2022/12/29 04:58:18;;;;;;;;;;;11.00;99.90;;;;;;5050124;28;19928;-71
2022/12/29 05:00:52;;;;;;;;;;;11.10;99.90;;;;;;5043513;28;20369;-71
2022/12/29 05:03:20;;;;;;;;;;;11.10;99.90;;;;;;5047000;28;19956;-72
2022/12/29 05:05:47;;;;;;;;;;;11.10;99.90;;;;;;5053507;28;20019;-71
2022/12/29 05:08:15;;;;;;;;;;;11.00;99.90;;;;;;5050200;28;19975;-70
2022/12/29 05:10:45;;;;;;;;;;;10.90;99.90;;;;;;5049184;28;19931;-71
2022/12/29 05:13:12;;;;;;;;;;;10.90;99.90;;;;;;5057389;28;20305;-71
2022/12/29 05:15:41;;;;;;;;;;;10.80;99.90;;;;;;5056792;28;19929;-71
2022/12/29 05:18:10;;;;;;;;;;;10.80;99.90;;;;;;5042396;28;19933;-70
2022/12/29 05:20:37;;;;;;;;;;;10.80;99.90;;;;;;5048886;28;20409;-71
2022/12/29 05:23:05;;;;;;;;;;;10.80;99.90;;;;;;5047407;28;20019;-70
2022/12/29 05:25:33;;;;;;;;;;;10.70;99.90;;;;;;5048520;28;19932;-72
2022/12/29 05:28:00;;;;;;;;;;;10.60;99.90;;;;;;5045776;28;20027;-69
2022/12/29 05:30:28;;;;;;;;;;;10.60;99.90;;;;;;5038597;28;20303;-69
2022/12/29 05:32:56;;;;;;;;;;;10.50;99.90;;;;;;5039880;28;20029;-69
2022/12/29 05:35:25;;;;;;;;;;;10.50;99.90;;;;;;5041861;28;20039;-70
2022/12/29 05:37:52;;;;;;;;;;;10.40;99.90;;;;;;5042795;28;19931;-71
2022/12/29 05:40:20;;;;;;;;;;;10.40;99.90;;;;;;5042768;28;20019;-70
2022/12/29 05:42:48;;;;;;;;;;;10.50;99.90;;;;;;5043627;28;20040;-71
2022/12/29 05:45:16;;;;;;;;;;;10.50;99.90;;;;;;5044440;28;19933;-72
2022/12/29 05:47:45;;;;;;;;;;;10.50;99.90;;;;;;5041455;28;19951;-70
2022/12/29 05:50:12;;;;;;;;;;;10.50;99.90;;;;;;5038328;28;20378;-71
2022/12/29 05:52:41;;;;;;;;;;;10.60;99.90;;;;;;5042467;28;19925;-70
2022/12/29 05:55:09;;;;;;;;;;;10.60;99.90;;;;;;5042653;28;19929;-70
2022/12/29 05:57:37;;;;;;;;;;;10.60;99.90;;;;;;5045216;28;19928;-71
2022/12/29 06:00:05;;;;;;;;;;;10.60;99.90;;;;;;5044850;28;20036;-71
2022/12/29 06:02:33;;;;;;;;;;;10.70;99.90;;;;;;5040993;28;19944;-69
2022/12/29 06:05:01;;;;;;;;;;;10.70;99.90;;;;;;5043703;28;19929;-70
2022/12/29 06:07:29;;;;;;;;;;;10.80;99.90;;;;;;5048871;28;20024;-70
2022/12/29 06:09:58;;;;;;;;;;;10.80;99.90;;;;;;5041862;28;19964;-72
2022/12/29 06:12:26;;;;;;;;;;;10.80;99.90;;;;;;5046654;28;19965;-71
2022/12/29 06:14:53;;;;;;;;;;;10.80;99.90;;;;;;5046158;28;19961;-70
2022/12/29 06:17:21;;;;;;;;;;;10.90;99.90;;;;;;5048632;28;19931;-72
2022/12/29 06:19:49;;;;;;;;;;;10.90;99.90;;;;;;5044544;28;20056;-69
2022/12/29 06:22:17;;;;;;;;;;;10.90;99.90;;;;;;5039757;28;19925;-69
2022/12/29 06:24:45;;;;;;;;;;;11.00;99.90;;;;;;5043313;28;19963;-69
2022/12/29 06:27:14;;;;;;;;;;;11.00;99.90;;;;;;5044933;28;20418;-69
2022/12/29 06:29:42;;;;;;;;;;;11.00;99.90;;;;;;5047409;28;19939;-70
2022/12/29 06:32:10;;;;;;;;;;;11.10;99.90;;;;;;5037036;28;20784;-71
2022/12/29 06:34:38;;;;;;;;;;;11.10;99.90;;;;;;5036134;28;19925;-70
2022/12/29 06:37:05;;;;;;;;;;;11.10;99.90;;;;;;5040075;28;19932;-70
2022/12/29 06:39:33;;;;;;;;;;;11.20;99.90;;;;;;5046418;28;20360;-72
2022/12/29 06:42:01;;;;;;;;;;;11.20;99.90;;;;;;5042189;28;19933;-72
2022/12/29 06:44:30;;;;;;;;;;;11.20;99.90;;;;;;5040738;28;20025;-71
2022/12/29 06:46:58;;;;;;;;;;;11.30;99.90;;;;;;5038358;28;20015;-71
2022/12/29 06:49:25;;;;;;;;;;;11.30;99.90;;;;;;5035009;28;20332;-69
2022/12/29 06:51:53;;;;;;;;;;;11.30;99.90;;;;;;5041234;28;20429;-71
2022/12/29 06:54:21;;;;;;;;;;;11.30;99.90;;;;;;5040085;28;20012;-70
2022/12/29 06:56:48;;;;;;;;;;;11.20;99.90;;;;;;5045284;28;20008;-71
2022/12/29 06:59:16;;;;;;;;;;;11.20;99.90;;;;;;5045920;28;19960;-70
2022/12/29 07:01:45;;;;;;;;;;;11.10;99.90;;;;;;5072973;22;19925;-64
2022/12/29 07:04:13;;;;;;;;;;;11.10;99.90;;;;;;5032213;28;19932;-64
2022/12/29 07:06:41;;;;;;;;;;;11.00;99.90;;;;;;5032886;28;19931;-64
2022/12/29 07:09:08;;;;;;;;;;;11.00;99.90;;;;;;5030946;28;20051;-66
2022/12/29 07:11:36;;;;;;;;;;;10.90;99.90;;;;;;5026230;28;19929;-64
2022/12/29 07:14:04;;;;;;;;;;;10.90;99.90;;;;;;5022058;28;20024;-65
2022/12/29 07:16:34;;;;;;;;;;;10.90;99.90;;;;;;5021147;28;19931;-66
2022/12/29 07:19:03;;;;;;;;;;;10.80;99.90;;;;;;5020127;28;19925;-66
2022/12/29 07:21:30;;;;;;;;;;;10.90;99.90;;;;;;5016873;28;20401;-64
2022/12/29 07:23:58;;;;;;;;;;;10.80;99.90;;;;;;5021559;28;20016;-65
2022/12/29 07:26:26;;;;;;;;;;;10.80;99.90;;;;;;5022104;28;20052;-65
2022/12/29 07:29:01;;;;;;;;;;;10.90;99.90;;;;;;5016109;28;19929;-65
2022/12/29 07:31:28;;;;;;;;;;;10.90;99.90;;;;;;5015842;28;20008;-65
2022/12/29 07:33:56;;;;;;;;;;;11.00;99.90;;;;;;5025442;28;19929;-65
2022/12/29 07:36:25;;;;;;;;;;;11.00;99.90;;;;;;5016361;28;19969;-65
2022/12/29 07:39:00;;;;;;;;;;;11.10;99.90;;;;;;5025134;28;19994;-65
2022/12/29 07:41:28;;;;;;;;;;;11.20;99.90;;;;;;5021291;28;19969;-66
2022/12/29 07:43:56;;;;;;;;;;;11.20;99.90;;;;;;5006649;28;19930;-65
2022/12/29 07:46:23;;;;;;;;;;;11.30;99.90;;;;;;5011959;28;20057;-65
2022/12/29 07:49:11;;;;;;;;;;;11.30;99.90;;;;;;5020225;28;19925;-65
2022/12/29 07:51:40;;;;;;;;;;;11.40;99.90;;;;;;5016455;28;19967;-65
2022/12/29 07:54:09;;;;;;;;;;;11.40;99.90;;;;;;5009402;28;20065;-66
2022/12/29 07:56:37;;;;;;;;;;;11.40;99.90;;;;;;5018724;28;19929;-64
2022/12/29 07:59:04;;;;;;;;;;;11.40;99.90;;;;;;5006098;28;19969;-64
2022/12/29 08:01:32;;;;;;;;;;;11.40;99.90;;;;;;5015163;28;20007;-65
2022/12/29 08:04:00;;;;;;;;;;;11.40;99.90;;;;;;5021781;28;19964;-65
2022/12/29 08:06:29;;;;;;;;;;;11.40;99.90;;;;;;5030008;28;19972;-65
2022/12/29 08:09:00;;;;;;;;;;;11.40;99.90;;;;;;5012795;28;19965;-66
2022/12/29 08:11:40;;;;;;;;;;;11.40;99.90;;;;;;5012262;28;19968;-66
2022/12/29 08:14:08;;;;;;;;;;;11.40;99.90;;;;;;5028990;28;20015;-66
2022/12/29 08:16:35;;;;;;;;;;;11.40;99.90;;;;;;5026243;28;19971;-65
2022/12/29 08:19:04;;;;;;;;;;;11.30;99.90;;;;;;5032141;28;20035;-64
2022/12/29 08:21:32;;;;;;;;;;;11.30;99.90;;;;;;5018589;28;20067;-65
2022/12/29 08:24:01;;;;;;;;;;;11.30;99.90;;;;;;5020920;28;20019;-66
2022/12/29 08:26:29;;;;;;;;;;;11.30;99.90;;;;;;5029229;28;20063;-65
2022/12/29 08:28:57;;;;;;;;;;;11.30;99.90;;;;;;5012291;28;19972;-65
2022/12/29 08:31:24;;;;;;;;;;;11.30;99.90;;;;;;5011218;28;20051;-65
2022/12/29 08:33:53;;;;;;;;;;;11.20;99.90;;;;;;5012317;28;20019;-65
2022/12/29 08:36:20;;;;;;;;;;;11.20;99.90;;;;;;5010593;28;19968;-65
2022/12/29 08:38:48;;;;;;;;;;;11.20;99.90;;;;;;5008885;28;19965;-65
2022/12/29 08:41:17;;;;;;;;;;;11.20;99.90;;;;;;5015359;28;20454;-65
2022/12/29 08:43:46;;;;;;;;;;;11.30;99.90;;;;;;5019455;28;19969;-65
2022/12/29 08:46:14;;;;;;;;;;;11.20;99.90;;;;;;5014450;28;19968;-65
2022/12/29 08:48:41;;;;;;;;;;;11.20;99.90;;;;;;5016934;28;19964;-65
2022/12/29 08:51:09;;;;;;;;;;;11.10;99.90;;;;;;5015686;28;19964;-66
2022/12/29 08:53:37;;;;;;;;;;;11.10;99.90;;;;;;5011067;28;19976;-65
2022/12/29 08:56:05;;;;;;;;;;;11.00;99.90;;;;;;5031694;28;19969;-65
2022/12/29 08:58:34;;;;;;;;;;;10.90;99.90;;;;;;5025982;28;19972;-66
2022/12/29 09:01:02;;;;;;;;;;;10.80;99.90;;;;;;5011067;28;19983;-66
2022/12/29 09:03:33;;;;;;;;;;;10.80;99.90;;;;;;5021381;28;20028;-65
2022/12/29 09:06:20;;;;;;;;;;;10.70;99.90;;;;;;5026227;28;19975;-66
2022/12/29 09:08:48;;;;;;;;;;;10.60;99.90;;;;;;5014072;28;19965;-65
2022/12/29 09:11:17;;;;;;;;;;;10.60;99.90;;;;;;5022427;28;20441;-65
2022/12/29 09:13:47;;;;;;;;;;;10.60;99.90;;;;;;5019244;28;20004;-66
2022/12/29 09:16:15;;;;;;;;;;;10.50;99.90;;;;;;5028170;28;19973;-66
2022/12/29 09:18:43;;;;;;;;;;;10.50;99.90;;;;;;5013262;28;19980;-67
2022/12/29 09:21:11;;;;;;;;;;;10.50;99.90;;;;;;5008722;28;19995;-64
2022/12/29 09:23:39;;;;;;;;;;;10.50;99.90;;;;;;5015984;28;20400;-65
2022/12/29 09:26:08;;;;;;;;;;;10.50;99.90;;;;;;5016919;28;19972;-65
2022/12/29 09:28:36;;;;;;;;;;;10.50;99.90;;;;;;5012677;28;20063;-66
2022/12/29 09:31:05;;;;;;;;;;;10.40;99.90;;;;;;5010102;28;20020;-66
2022/12/29 09:33:34;;;;;;;;;;;10.40;99.90;;;;;;5016667;28;19972;-66
2022/12/29 09:36:01;;;;;;;;;;;10.40;99.90;;;;;;5018320;28;20063;-66
2022/12/29 09:38:29;;;;;;;;;;;10.40;99.90;;;;;;5024516;28;19973;-67
2022/12/29 09:41:00;;;;;;;;;;;10.40;99.90;;;;;;5012110;28;19971;-65
2022/12/29 09:43:36;;;;;;;;;;;10.40;99.90;;;;;;5011374;28;19969;-66
2022/12/29 09:46:14;;;;;;;;;;;10.30;99.90;;;;;;5013424;28;19975;-65
2022/12/29 09:48:45;;;;;;;;;;;10.30;99.90;;;;;;5011793;28;19968;-65
2022/12/29 09:51:14;;;;;;;;;;;10.30;99.90;;;;;;5016668;28;19965;-66
2022/12/29 09:53:44;;;;;;;;;;;10.30;99.90;;;;;;5011345;28;20055;-65
2022/12/29 09:56:14;;;;;;;;;;;10.30;99.90;;;;;;5011411;28;19965;-65
2022/12/29 09:58:44;;;;;;;;;;;10.40;99.90;;;;;;5013866;28;19968;-65
2022/12/29 10:01:17;;;;;;;;;;;10.30;99.90;;;;;;5012736;28;19969;-66
2022/12/29 10:03:47;;;;;;;;;;;10.40;99.90;;;;;;5014897;28;19965;-66
2022/12/29 10:06:18;;;;;;;;;;;10.40;99.90;;;;;;5014648;28;20066;-65
2022/12/29 10:08:49;;;;;;;;;;;10.30;99.90;;;;;;5010399;28;20055;-65
2022/12/29 10:11:25;;;;;;;;;;;10.30;99.90;;;;;;5019592;28;20345;-65
2022/12/29 10:14:01;;;;;;;;;;;10.30;99.90;;;;;;5021171;28;19971;-65
2022/12/29 10:16:38;;;;;;;;;;;10.30;99.90;;;;;;5008391;28;19991;-66
2022/12/29 10:19:15;;;;;;;;;;;10.30;99.90;;;;;;5012802;28;19973;-65
2022/12/29 10:21:48;;;;;;;;;;;10.30;99.90;;;;;;5009739;28;19975;-65
2022/12/29 10:24:17;;;;;;;;;;;10.30;99.90;;;;;;5012132;28;19973;-65
2022/12/29 10:26:46;;;;;;;;;;;10.30;99.90;;;;;;5016607;28;20059;-65
2022/12/29 10:29:15;;;;;;;;;;;10.30;99.90;;;;;;5011223;28;20057;-66
2022/12/29 10:31:46;;;;;;;;;;;10.30;99.90;;;;;;5016631;28;20080;-65
2022/12/29 10:34:19;;;;;;;;;;;10.30;99.90;;;;;;5009639;28;19979;-64
2022/12/29 10:36:48;;;;;;;;;;;10.30;99.90;;;;;;5017155;28;20063;-65
2022/12/29 10:39:20;;;;;;;;;;;10.30;99.90;;;;;;5012612;28;20453;-65
2022/12/29 10:41:50;;;;;;;;;;;10.40;99.90;;;;;;5016046;28;20043;-65
2022/12/29 10:44:18;;;;;;;;;;;10.40;99.90;;;;;;5013985;28;19973;-65
2022/12/29 10:46:52;;;;;;;;;;;10.40;99.90;;;;;;5019539;28;20019;-65
2022/12/29 10:49:20;;;;;;;;;;;10.40;99.90;;;;;;5017209;28;20063;-65
2022/12/29 10:51:51;;;;;;;;;;;10.50;99.90;;;;;;5013924;28;20062;-65
2022/12/29 10:54:22;;;;;;;;;;;10.60;99.90;;;;;;5012255;28;19976;-65
2022/12/29 10:56:52;;;;;;;;;;;10.60;99.90;;;;;;5011364;28;20027;-65
2022/12/29 10:59:22;;;;;;;;;;;10.60;99.90;;;;;;5004411;28;20067;-65
2022/12/29 11:01:59;;;;;;;;;;;10.70;99.90;;;;;;5010328;28;19968;-65
2022/12/29 11:04:34;;;;;;;;;;;11.00;99.90;;;;;;5014326;28;20000;-65
2022/12/29 11:07:02;;;;;;;;;;;11.30;99.90;;;;;;5007311;28;20000;-65
2022/12/29 11:09:32;;;;;;;;;;;11.60;99.90;;;;;;5012937;28;19995;-65
2022/12/29 11:12:18;;;;;;;;;;;11.90;99.90;;;;;;5018507;28;19968;-66
2022/12/29 11:15:00;;;;;;;;;;;12.10;99.90;;;;;;5009238;28;19975;-66
2022/12/29 11:17:29;;;;;;;;;;;12.40;99.90;;;;;;5031535;28;20198;-66
2022/12/29 11:19:57;;;;;;;;;;;12.80;99.90;;;;;;5033018;28;19969;-65
2022/12/29 11:22:26;;;;;;;;;;;12.80;99.90;;;;;;5033526;28;20344;-66
2022/12/29 11:24:54;;;;;;;;;;;12.70;99.90;;;;;;5033408;28;20102;-65
2022/12/29 11:27:23;;;;;;;;;;;12.40;99.90;;;;;;5020888;28;20424;-65
2022/12/29 11:29:51;;;;;;;;;;;12.30;99.90;;;;;;5013408;28;20412;-65
2022/12/29 11:32:19;;;;;;;;;;;12.30;99.90;;;;;;5017602;28;20030;-65
2022/12/29 11:34:57;;;;;;;;;;;12.30;99.90;;;;;;5033189;28;20384;-65
2022/12/29 11:37:27;;;;;;;;;;;12.30;99.90;;;;;;5022732;28;20412;-66
2022/12/29 11:39:57;;;;;;;;;;;12.50;99.90;;;;;;5012528;28;19968;-66
2022/12/29 11:42:36;;;;;;;;;;;12.50;99.90;;;;;;5013026;28;20417;-66
2022/12/29 11:45:05;;;;;;;;;;;12.60;99.90;;;;;;5013222;28;20063;-66
2022/12/29 11:47:37;;;;;;;;;;;12.70;99.90;;;;;;5012785;28;19969;-66
2022/12/29 11:50:08;;;;;;;;;;;12.70;99.90;;;;;;5012649;28;20592;-66
2022/12/29 11:52:39;;;;;;;;;;;12.70;99.90;;;;;;5012728;28;20022;-66
2022/12/29 11:55:17;;;;;;;;;;;12.70;99.90;;;;;;5013295;28;20402;-66
2022/12/29 11:57:45;;;;;;;;;;;12.70;99.90;;;;;;5012989;28;19972;-66
2022/12/29 12:00:17;;;;;;;;;;;12.80;99.90;;;;;;5012351;28;19965;-66
2022/12/29 12:02:51;;;;;;;;;;;12.80;99.90;;;;;;5012472;28;20001;-66
2022/12/29 12:05:27;;;;;;;;;;;13.30;99.90;;;;;;5013394;28;19979;-66
2022/12/29 12:07:57;;;;;;;;;;;13.50;99.90;;;;;;5012688;28;19964;-66
2022/12/29 12:10:27;;;;;;;;;;;13.50;99.90;;;;;;5012091;28;20411;-66
2022/12/29 12:13:00;;;;;;;;;;;13.50;99.90;;;;;;5013007;28;19976;-66
2022/12/29 12:15:38;;;;;;;;;;;13.40;99.90;;;;;;5012690;28;20056;-66
2022/12/29 12:18:25;;;;;;;;;;;13.20;99.90;;;;;;5011876;28;20027;-66
2022/12/29 12:20:55;;;;;;;;;;;12.90;99.90;;;;;;5030599;28;20417;-66
2022/12/29 12:23:28;;;;;;;;;;;12.70;99.90;;;;;;5032268;28;19968;-66
2022/12/29 12:26:00;;;;;;;;;;;12.60;99.90;;;;;;5032324;28;20389;-66
2022/12/29 12:28:31;;;;;;;;;;;12.50;99.90;;;;;;5032552;28;20101;-66
2022/12/29 12:31:06;;;;;;;;;;;12.40;99.90;;;;;;5031699;28;19973;-65
2022/12/29 12:33:37;;;;;;;;;;;12.20;99.90;;;;;;5032349;28;20464;-67
2022/12/29 12:36:14;;;;;;;;;;;12.20;99.90;;;;;;5021313;28;20059;-66
2022/12/29 12:38:47;;;;;;;;;;;12.10;99.90;;;;;;5004916;28;19975;-65
2022/12/29 12:41:17;;;;;;;;;;;12.10;99.90;;;;;;5012016;28;20339;-67
2022/12/29 12:43:50;;;;;;;;;;;12.00;99.90;;;;;;5012586;28;19969;-67
2022/12/29 12:46:32;;;;;;;;;;;12.00;99.90;;;;;;5012248;28;20059;-66
2022/12/29 12:49:12;;;;;;;;;;;11.90;99.90;;;;;;5012498;28;19969;-66
2022/12/29 12:51:47;;;;;;;;;;;11.70;99.90;;;;;;5012431;28;20130;-66
2022/12/29 12:54:25;;;;;;;;;;;11.60;99.90;;;;;;5013156;28;19977;-66
2022/12/29 12:57:00;;;;;;;;;;;11.60;99.90;;;;;;5011944;28;20063;-67
2022/12/29 12:59:37;;;;;;;;;;;11.50;99.90;;;;;;5012361;28;20003;-67
2022/12/29 13:02:12;;;;;;;;;;;11.40;99.90;;;;;;5046546;22;19968;-63
2022/12/29 13:04:53;;;;;;;;;;;11.40;99.90;;;;;;5054874;28;19963;-64
2022/12/29 13:07:29;;;;;;;;;;;11.40;99.90;;;;;;5055123;28;20003;-64
2022/12/29 13:10:03;;;;;;;;;;;11.40;99.90;;;;;;5051438;28;20078;-63
2022/12/29 13:12:35;;;;;;;;;;;11.40;99.90;;;;;;5058110;28;20003;-63
2022/12/29 13:15:06;;;;;;;;;;;11.60;99.90;;;;;;5045173;28;19996;-63
2022/12/29 13:17:37;;;;;;;;;;;11.70;99.90;;;;;;5037189;28;20023;-63
2022/12/29 13:20:11;;;;;;;;;;;11.90;99.90;;;;;;5043890;28;20062;-64
2022/12/29 13:22:44;;;;;;;;;;;12.00;99.90;;;;;;5044727;28;19964;-64
2022/12/29 13:25:23;;;;;;;;;;;12.20;99.90;;;;;;5040563;28;19965;-63
2022/12/29 13:27:54;;;;;;;;;;;12.30;99.90;;;;;;5048726;28;20050;-64
2022/12/29 13:30:22;;;;;;;;;;;12.30;99.90;;;;;;5049139;28;20413;-64
2022/12/29 13:32:56;;;;;;;;;;;12.40;99.90;;;;;;5047019;28;19968;-64
2022/12/29 13:35:30;;;;;;;;;;;12.40;99.90;;;;;;5040441;28;19964;-63
2022/12/29 13:38:01;;;;;;;;;;;12.40;99.90;;;;;;5040626;28;19964;-64
2022/12/29 13:40:33;;;;;;;;;;;12.30;99.90;;;;;;5044613;28;20021;-63
2022/12/29 13:43:02;;;;;;;;;;;12.20;99.90;;;;;;5043320;28;20059;-64
2022/12/29 13:45:31;;;;;;;;;;;12.10;99.90;;;;;;5054656;28;20551;-63
2022/12/29 13:48:02;;;;;;;;;;;12.00;99.90;;;;;;5047658;28;19971;-64
2022/12/29 13:50:33;;;;;;;;;;;12.00;99.90;;;;;;5047766;28;19964;-63
2022/12/29 13:53:05;;;;;;;;;;;11.90;99.90;;;;;;5050986;28;20541;-64
2022/12/29 13:55:36;;;;;;;;;;;11.90;99.90;;;;;;5046700;28;20463;-64
2022/12/29 13:58:05;;;;;;;;;;;11.90;99.90;;;;;;5053602;28;20383;-63
2022/12/29 14:00:36;;;;;;;;;;;11.90;99.90;;;;;;5043968;28;19964;-64
2022/12/29 14:03:17;;;;;;;;;;;11.90;99.90;;;;;;5049140;28;20348;-64
2022/12/29 14:05:46;;;;;;;;;;;11.90;99.90;;;;;;5044086;28;19963;-64
2022/12/29 14:08:17;;;;;;;;;;;11.90;99.90;;;;;;5055758;28;19968;-64
2022/12/29 14:10:49;;;;;;;;;;;11.90;99.90;;;;;;5053061;28;20441;-64
2022/12/29 14:13:19;;;;;;;;;;;11.80;99.90;;;;;;5048994;28;19964;-64
2022/12/29 14:15:52;;;;;;;;;;;11.80;99.90;;;;;;5049762;28;19971;-63
2022/12/29 14:18:22;;;;;;;;;;;11.80;99.90;;;;;;5051944;28;19970;-63
2022/12/29 14:20:52;;;;;;;;;;;11.80;99.90;;;;;;5054261;28;20084;-64
2022/12/29 14:23:29;;;;;;;;;;;11.70;99.90;;;;;;5060853;28;19972;-63
2022/12/29 14:25:58;;;;;;;;;;;11.60;99.90;;;;;;5044512;28;20075;-64
2022/12/29 14:28:27;;;;;;;;;;;11.60;99.90;;;;;;5051489;28;20556;-63
2022/12/29 14:30:55;;;;;;;;;;;11.50;99.90;;;;;;5065780;28;19970;-63
2022/12/29 14:33:25;;;;;;;;;;;11.50;99.90;;;;;;5050716;28;20012;-64
2022/12/29 14:35:53;;;;;;;;;;;11.50;99.90;;;;;;5061167;28;20067;-64
2022/12/29 14:38:32;;;;;;;;;;;11.50;99.90;;;;;;5059404;28;20501;-64
2022/12/29 14:41:24;;;;;;;;;;;11.50;99.90;;;;;;5041336;28;19971;-63
2022/12/29 14:43:54;;;;;;;;;;;11.50;99.90;;;;;;5053643;28;20437;-64
2022/12/29 14:46:22;;;;;;;;;;;11.50;99.90;;;;;;5049677;28;20058;-64
2022/12/29 14:48:56;;;;;;;;;;;11.50;99.90;;;;;;5055767;28;19964;-64
2022/12/29 14:51:30;;;;;;;;;;;11.50;99.90;;;;;;5054651;28;19978;-64
2022/12/29 14:53:59;;;;;;;;;;;11.50;99.90;;;;;;5061405;28;20011;-64
2022/12/29 14:56:28;;;;;;;;;;;11.50;99.90;;;;;;5049333;28;20445;-63
2022/12/29 14:58:57;;;;;;;;;;;11.50;99.90;;;;;;5046660;28;19964;-63
2022/12/29 15:01:37;;;;;;;;;;;11.50;99.90;;;;;;5050090;28;19983;-63
2022/12/29 15:04:08;;;;;;;;;;;11.50;99.90;;;;;;5050045;28;20345;-64
2022/12/29 15:06:36;;;;;;;;;;;11.30;99.90;;;;;;5064317;28;19972;-63